Time;durP1;ratioP1;P1;durP2;ratioP2;P2;SDS_P1;SDS_P2;PMS_P1;PMS_P2;Temp;Humidity;BMP_temperature;BMP_pressure;BME280_temperature;BME280_humidity;BME280_pressure;Samples;Min_cycle;Max_cycle;Signal;HPM_P1;HPM_P2
2022/05/27 00:01:47;;;;;;;2.93;2.70;;;;;;;18.21;53.22;99367.75;6948201;28;20241;-79
2022/05/27 00:05:09;;;;;;;4.50;2.50;;;;;;;17.50;55.15;99358.19;6947439;28;20318;-78
2022/05/27 00:08:31;;;;;;;3.03;2.50;;;;;;;18.01;54.05;99366.47;6947362;28;20239;-78
2022/05/27 00:11:54;;;;;;;2.70;2.50;;;;;;;17.70;55.14;99361.41;6973396;28;20668;-78
2022/05/27 00:15:16;;;;;;;4.23;2.60;;;;;;;17.98;54.31;99366.97;6948124;28;20656;-78
2022/05/27 00:18:38;;;;;;;2.97;2.60;;;;;;;17.89;54.82;99365.66;6951473;28;20252;-78
2022/05/27 00:21:59;;;;;;;2.70;2.50;;;;;;;17.78;55.11;99361.88;6968226;28;20272;-78
2022/05/27 00:25:21;;;;;;;2.50;2.23;;;;;;;18.21;53.13;99343.19;6947036;28;20291;-78
2022/05/27 00:28:44;;;;;;;4.07;2.60;;;;;;;18.17;53.61;99363.03;6948384;28;20215;-78
2022/05/27 00:32:07;;;;;;;2.73;2.30;;;;;;;17.62;54.07;99304.47;6946857;28;20565;-78
2022/05/27 00:35:28;;;;;;;4.33;2.10;;;;;;;18.13;53.64;99350.91;6946591;28;20199;-79
2022/05/27 00:38:51;;;;;;;3.80;2.97;;;;;;;18.24;53.18;99355.53;6946334;28;20344;-79
2022/05/27 00:42:12;;;;;;;3.93;2.47;;;;;;;18.01;53.48;99347.38;6938550;28;20680;-79
2022/05/27 00:45:36;;;;;;;2.87;2.57;;;;;;;17.80;54.31;99342.56;6946951;28;20269;-79
2022/05/27 00:49:03;;;;;;;3.03;2.63;;;;;;;17.83;54.42;99342.06;6969898;28;20328;-79
2022/05/27 00:52:28;;;;;;;4.07;2.73;;;;;;;17.60;53.99;99306.63;6959135;28;20309;-79
2022/05/27 00:55:56;;;;;;;2.97;2.50;;;;;;;17.83;54.21;99344.78;6955197;28;20702;-79
2022/05/27 00:59:21;;;;;;;3.83;2.63;;;;;;;17.96;53.89;99331.75;6945883;28;20301;-78
2022/05/27 01:02:44;;;;;;;3.10;2.77;;;;;;;17.30;55.70;99335.84;6967902;28;20590;-78
2022/05/27 01:06:05;;;;;;;6.90;2.67;;;;;;;17.70;54.37;99334.94;6954497;28;20785;-78
2022/05/27 01:09:28;;;;;;;3.97;2.83;;;;;;;17.41;55.08;99313.25;6956120;28;20313;-78
2022/05/27 01:13:11;;;;;;;4.83;2.70;;;;;;;17.48;55.18;99331.16;6974190;28;20702;-79
2022/05/27 01:16:40;;;;;;;3.30;2.87;;;;;;;17.36;55.55;99335.75;6974245;28;20503;-79
2022/05/27 01:20:19;;;;;;;3.07;2.40;;;;;;;17.72;54.65;99327.38;6951887;28;20237;-79
2022/05/27 01:24:02;;;;;;;3.60;2.50;;;;;;;17.55;54.20;99329.16;6952651;28;20202;-78
2022/05/27 01:27:45;;;;;;;2.60;2.40;;;;;;;17.24;55.89;99328.63;6941972;28;20556;-79
2022/05/27 01:31:14;;;;;;;3.57;2.90;;;;;;;17.20;55.82;99321.97;6951013;28;20276;-79
2022/05/27 01:34:44;;;;;;;4.90;2.60;;;;;;;17.68;54.21;99323.44;6946126;28;20253;-79
2022/05/27 01:38:11;;;;;;;3.00;2.77;;;;;;;17.73;53.72;99309.09;6961581;28;20238;-78
2022/05/27 01:41:40;;;;;;;3.60;2.73;;;;;;;17.40;55.17;99326.06;6944510;28;20661;-78
2022/05/27 01:45:09;;;;;;;2.50;2.30;;;;;;;17.60;54.38;99328.44;6924393;28;20191;-79
2022/05/27 01:48:36;;;;;;;4.20;2.50;;;;;;;17.78;54.00;99315.50;6969646;28;20218;-79
2022/05/27 01:52:07;;;;;;;3.53;2.50;;;;;;;16.94;56.10;99320.53;6954774;28;20265;-78
2022/05/27 01:55:32;;;;;;;4.03;2.80;;;;;;;17.10;56.44;99322.53;6951019;28;20198;-78
2022/05/27 01:58:57;;;;;;;3.47;2.43;;;;;;;17.44;55.99;99318.22;6954465;28;20317;-79
2022/05/27 02:02:22;;;;;;;2.47;2.27;;;;;;;17.62;54.79;99305.31;6963473;28;20223;-79
2022/05/27 02:05:49;;;;;;;3.90;2.80;;;;;;;17.81;54.29;99308.75;6958137;28;20206;-78
2022/05/27 02:09:14;;;;;;;3.20;2.50;;;;;;;17.95;53.40;99299.22;6952710;28;20323;-79
2022/05/27 02:12:40;;;;;;;3.47;2.87;;;;;;;17.16;54.97;99296.28;6965935;28;20215;-79
2022/05/27 02:16:03;;;;;;;3.47;2.67;;;;;;;17.38;55.81;99306.38;6969681;28;20204;-79
2022/05/27 02:19:27;;;;;;;3.37;2.30;;;;;;;17.15;56.31;99311.78;6950843;28;20250;-79
2022/05/27 02:22:53;;;;;;;3.33;2.73;;;;;;;17.21;55.86;99310.84;6942100;28;20303;-79
2022/05/27 02:26:17;;;;;;;3.90;2.60;;;;;;;17.31;55.81;99296.63;6962585;28;20198;-80
2022/05/27 02:29:39;;;;;;;3.90;2.30;;;;;;;17.65;53.86;99298.56;6948629;28;20231;-78
2022/05/27 02:36:47;;;;;;;3.20;2.60;;;;;;;16.98;56.60;99299.09;6953974;28;20220;-79
2022/05/27 02:40:14;;;;;;;3.50;2.70;;;;;;;16.87;56.44;99289.00;6948609;28;20237;-79
2022/05/27 02:43:47;;;;;;;2.73;2.53;;;;;;;17.04;56.95;99295.44;6948526;28;20250;-79
2022/05/27 02:47:13;;;;;;;2.63;2.40;;;;;;;17.33;55.36;99289.88;6948639;28;20289;-80
2022/05/27 02:50:41;;;;;;;2.80;2.50;;;;;;;16.73;56.99;99280.19;6948099;28;20237;-79
2022/05/27 02:54:06;;;;;;;3.40;2.50;;;;;;;17.03;56.02;99271.94;6947668;28;20222;-79
2022/05/27 02:57:33;;;;;;;3.43;2.50;;;;;;;16.87;56.58;99295.25;6948710;28;20673;-79
2022/05/27 03:00:55;;;;;;;2.90;2.57;;;;;;;17.10;55.82;99283.59;6948666;28;20638;-79
2022/05/27 03:04:18;;;;;;;3.23;2.57;;;;;;;17.04;56.11;99293.50;6949018;28;20209;-79
2022/05/27 03:07:51;;;;;;;2.83;2.60;;;;;;;16.92;56.30;99289.13;6949477;28;20247;-78
2022/05/27 03:11:15;;;;;;;4.27;2.70;;;;;;;16.35;58.43;99287.00;6950579;28;20596;-79
2022/05/27 03:14:57;;;;;;;4.07;2.70;;;;;;;16.67;57.55;99293.88;6949204;28;20238;-79
2022/05/27 03:18:28;;;;;;;4.47;3.03;;;;;;;16.94;56.84;99273.38;6949378;28;20219;-79
2022/05/27 03:21:56;;;;;;;4.87;2.40;;;;;;;16.88;56.68;99261.50;6949574;28;20188;-79
2022/05/27 03:25:22;;;;;;;3.93;2.40;;;;;;;17.28;55.17;99258.94;6949852;28;20197;-79
2022/05/27 03:28:51;;;;;;;5.27;2.50;;;;;;;17.01;56.51;99276.81;6949411;28;20227;-79
2022/05/27 03:32:21;;;;;;;5.67;2.80;;;;;;;17.12;56.04;99287.75;6950014;28;20270;-79
2022/05/27 03:35:46;;;;;;;5.27;2.27;;;;;;;17.20;56.94;99279.19;6963958;28;20690;-79
2022/05/27 03:39:12;;;;;;;4.03;3.60;;;;;;;17.22;56.76;99292.59;6948929;28;20369;-78
2022/05/27 03:42:36;;;;;;;4.57;2.60;;;;;;;17.39;56.06;99266.34;6944148;28;20248;-79
2022/05/27 03:45:59;;;;;;;6.07;2.57;;;;;;;17.57;55.62;99294.28;6949366;28;20268;-78
2022/05/27 03:49:22;;;;;;;3.67;2.83;;;;;;;17.29;55.84;99258.69;6947821;28;20229;-79
2022/05/27 03:52:45;;;;;;;3.60;2.93;;;;;;;17.70;55.66;99290.50;6943460;28;20309;-79
2022/05/27 03:56:07;;;;;;;3.60;3.03;;;;;;;17.68;56.74;99298.91;6960692;28;20199;-79
2022/05/27 03:59:29;;;;;;;3.07;2.73;;;;;;;17.98;55.54;99293.31;6947607;28;20324;-79
2022/05/27 04:02:50;;;;;;;3.10;2.60;;;;;;;18.31;54.34;99286.13;6958759;28;20214;-79
2022/05/27 04:06:13;;;;;;;4.93;2.60;;;;;;;18.70;54.15;99298.88;6951017;28;20206;-80
2022/05/27 04:09:36;;;;;;;2.47;2.27;;;;;;;18.77;53.79;99299.56;6947546;28;20247;-79
2022/05/27 04:12:58;;;;;;;2.90;2.40;;;;;;;18.46;55.51;99291.84;6948186;28;20230;-79
2022/05/27 04:16:19;;;;;;;3.60;2.60;;;;;;;18.32;55.27;99295.97;6947631;28;20220;-79
2022/05/27 04:19:41;;;;;;;3.53;2.77;;;;;;;18.58;54.58;99289.09;6969210;28;20308;-79
2022/05/27 04:23:04;;;;;;;3.80;2.43;;;;;;;18.61;53.90;99267.56;6975148;28;20237;-79
2022/05/27 04:26:26;;;;;;;3.57;2.57;;;;;;;19.28;52.09;99302.13;6975566;28;20237;-79
2022/05/27 04:29:49;;;;;;;5.60;2.70;;;;;;;19.39;52.18;99303.13;6972235;28;20229;-79
2022/05/27 04:33:11;;;;;;;6.20;2.80;;;;;;;19.58;51.29;99291.66;6961623;28;20325;-79
2022/05/27 04:36:32;;;;;;;7.53;2.50;;;;;;;19.70;50.58;99299.78;6975844;28;20210;-81
2022/05/27 04:39:55;;;;;;;3.67;2.50;;;;;;;19.58;50.89;99291.66;6954380;28;20707;-79
2022/05/27 04:43:17;;;;;;;2.37;2.17;;;;;;;19.77;50.38;99289.47;6948961;28;20230;-81
2022/05/27 04:46:39;;;;;;;5.10;2.50;;;;;;;20.15;49.69;99297.66;6954108;28;20203;-78
2022/05/27 04:50:00;;;;;;;3.63;2.67;;;;;;;19.71;50.51;99279.53;6957136;28;20234;-80
2022/05/27 04:53:22;;;;;;;5.13;2.60;;;;;;;20.14;49.17;99280.44;6953253;28;20241;-80
2022/05/27 04:56:45;;;;;;;3.83;2.40;;;;;;;20.22;49.39;99277.22;6952350;28;20214;-80
2022/05/27 05:00:10;;;;;;;4.93;2.60;;;;;;;19.94;49.73;99271.09;6954622;28;20637;-80
2022/05/27 05:03:32;;;;;;;3.60;2.50;;;;;;;20.17;48.85;99268.13;6955370;28;20227;-79
2022/05/27 05:07:03;;;;;;;3.47;2.57;;;;;;;20.28;48.81;99289.09;6947516;28;20564;-80
2022/05/27 05:10:25;;;;;;;4.10;2.60;;;;;;;20.40;48.76;99304.28;6926129;28;20230;-79
2022/05/27 05:13:48;;;;;;;2.73;2.37;;;;;;;20.23;49.06;99297.25;6956204;28;20223;-79
2022/05/27 05:17:09;;;;;;;2.87;2.23;;;;;;;19.87;49.98;99309.59;6964606;28;20261;-79
2022/05/27 05:20:32;;;;;;;3.90;2.67;;;;;;;19.73;50.30;99321.97;6963879;28;20255;-80
2022/05/27 05:23:54;;;;;;;2.60;2.40;;;;;;;19.70;50.87;99321.66;6953426;28;20595;-79
2022/05/27 05:27:16;;;;;;;3.23;2.53;;;;;;;19.81;49.70;99312.53;6978982;28;20194;-79
2022/05/27 05:30:39;;;;;;;4.43;2.27;;;;;;;20.40;48.89;99317.97;6957103;28;20306;-79
2022/05/27 05:34:01;;;;;;;3.27;2.20;;;;;;;20.38;49.08;99322.06;6954060;28;20259;-79
2022/05/27 05:37:23;;;;;;;4.10;2.87;;;;;;;20.00;49.96;99317.47;6953296;28;20226;-81
2022/05/27 05:40:44;;;;;;;3.00;2.60;;;;;;;20.09;49.73;99320.59;6955979;28;20365;-81
2022/05/27 05:44:09;;;;;;;2.60;2.40;;;;;;;20.11;49.75;99329.41;6942088;28;20614;-79
2022/05/27 05:47:32;;;;;;;2.70;2.23;;;;;;;20.45;49.20;99315.31;6954438;28;20207;-79
2022/05/27 05:50:53;;;;;;;4.27;2.53;;;;;;;20.36;48.89;99307.81;6953688;28;20230;-79
2022/05/27 05:54:15;;;;;;;4.67;2.80;;;;;;;20.75;48.67;99310.16;6968780;28;20308;-79
2022/05/27 05:57:41;;;;;;;3.10;2.60;;;;;;;20.73;48.11;99306.88;6954022;28;20724;-79
2022/05/27 06:01:03;;;;;;;3.83;2.37;;;;;;;20.62;49.23;99307.00;6953747;28;20250;-80
2022/05/27 06:04:26;;;;;;;6.23;2.57;;;;;;;20.37;49.28;99310.28;6978691;28;20199;-80
2022/05/27 06:07:49;;;;;;;6.73;3.60;;;;;;;20.45;49.58;99319.97;6982047;28;20217;-80
2022/05/27 06:11:10;;;;;;;5.30;3.30;;;;;;;20.56;49.26;99306.13;6973314;28;20286;-80
2022/05/27 06:14:32;;;;;;;3.23;2.47;;;;;;;20.76;48.75;99308.25;6961066;28;20282;-80
2022/05/27 06:17:53;;;;;;;5.17;3.03;;;;;;;20.44;49.45;99310.09;6980814;28;20367;-80
2022/05/27 06:21:17;;;;;;;6.27;2.73;;;;;;;20.55;48.62;99288.03;6962069;28;20238;-80
2022/05/27 06:24:39;;;;;;;4.03;2.97;;;;;;;20.87;48.35;99312.78;6954210;28;20266;-81
2022/05/27 06:35:15;;;;;;;3.80;2.37;;;;;;;21.02;47.88;99300.88;6955694;28;20232;-81
2022/05/27 06:38:39;;;;;;;5.53;2.77;;;;;;;20.84;48.30;99298.47;6957685;28;20226;-81
2022/05/27 06:42:01;;;;;;;6.63;2.47;;;;;;;21.01;48.31;99314.88;6965005;28;20216;-81
2022/05/27 06:45:22;;;;;;;4.80;3.23;;;;;;;20.91;48.80;99314.75;6933522;28;20215;-81
2022/05/27 06:48:44;;;;;;;3.27;2.40;;;;;;;21.01;49.23;99333.22;6956567;28;20234;-79
2022/05/27 06:52:07;;;;;;;5.30;3.10;;;;;;;21.06;48.89;99316.81;6958314;28;20211;-80
2022/05/27 06:55:30;;;;;;;4.60;3.13;;;;;;;21.05;48.94;99324.22;6968338;28;20225;-81
2022/05/27 06:58:51;;;;;;;3.43;2.80;;;;;;;20.76;49.87;99333.75;6964376;28;20236;-81
2022/05/27 07:02:13;;;;;;;6.90;4.43;;;;;;;21.16;49.01;99334.19;6963036;28;20236;-81
2022/05/27 07:05:35;;;;;;;3.70;3.27;;;;;;;21.01;48.36;99284.72;6976194;28;20209;-80
2022/05/27 07:08:56;;;;;;;4.60;3.30;;;;;;;20.87;49.48;99334.69;6991244;28;20220;-81
2022/05/27 07:12:19;;;;;;;3.17;2.83;;;;;;;20.26;50.49;99310.41;6982574;28;20230;-79
2022/05/27 07:15:41;;;;;;;3.33;3.03;;;;;;;21.31;49.10;99321.44;6977820;28;20237;-80
2022/05/27 07:19:03;;;;;;;3.83;2.93;;;;;;;20.92;48.83;99335.59;6960880;28;20227;-80
2022/05/27 07:22:25;;;;;;;6.67;3.00;;;;;;;20.47;50.25;99312.31;6926451;28;20209;-79
2022/05/27 07:25:47;;;;;;;3.90;2.97;;;;;;;20.77;49.21;99312.66;6925105;28;20200;-80
2022/05/27 07:29:10;;;;;;;9.17;2.80;;;;;;;20.91;48.90;99308.44;6923522;28;20227;-80
2022/05/27 07:32:33;;;;;;;3.17;2.87;;;;;;;20.63;49.31;99293.03;6934723;28;20687;-80
2022/05/27 07:35:55;;;;;;;4.50;2.93;;;;;;;20.83;49.09;99326.97;6952467;28;20705;-80
2022/05/27 07:39:17;;;;;;;5.10;3.03;;;;;;;20.62;50.22;99310.56;6962186;28;20228;-80
2022/05/27 07:42:38;;;;;;;5.93;3.37;;;;;;;20.78;49.75;99315.16;6946458;28;20206;-81
2022/05/27 07:46:02;;;;;;;4.93;3.37;;;;;;;20.97;48.72;99296.44;6954933;28;20204;-81
2022/05/27 07:49:23;;;;;;;3.20;2.70;;;;;;;21.27;48.77;99321.41;6951991;28;20238;-78
2022/05/27 07:52:45;;;;;;;4.43;3.37;;;;;;;20.76;49.47;99327.44;6947345;28;20214;-79
2022/05/27 07:56:07;;;;;;;3.87;2.90;;;;;;;21.02;49.42;99330.22;6967269;28;20226;-79
2022/05/27 07:59:29;;;;;;;4.57;3.00;;;;;;;20.83;49.74;99329.72;6971940;28;20223;-82
2022/05/27 08:02:52;;;;;;;3.00;2.70;;;;;;;21.13;49.08;99335.53;6968749;28;20207;-81
2022/05/27 08:06:14;;;;;;;8.57;2.80;;;;;;;21.28;48.42;99313.75;6950315;28;20203;-81
2022/05/27 08:09:35;;;;;;;2.83;2.50;;;;;;;21.14;49.35;99331.69;6981802;28;20207;-77
2022/05/27 08:12:57;;;;;;;3.90;2.90;;;;;;;21.61;47.99;99329.09;6960942;28;20197;-80
2022/05/27 08:16:19;;;;;;;3.83;2.73;;;;;;;21.56;47.94;99329.06;6950692;28;20201;-80
2022/05/27 08:19:42;;;;;;;4.87;2.87;;;;;;;21.67;47.56;99306.91;6948759;28;20243;-80
2022/05/27 08:23:04;;;;;;;5.67;2.90;;;;;;;21.85;47.44;99330.38;6952062;28;20195;-80
2022/05/27 08:26:25;;;;;;;6.23;2.87;;;;;;;21.69;47.39;99321.22;6951533;28;20210;-81
2022/05/27 08:29:47;;;;;;;3.20;2.90;;;;;;;21.76;47.60;99308.09;6949193;28;20234;-81
2022/05/27 08:33:09;;;;;;;4.23;2.53;;;;;;;21.51;46.75;99312.53;6928953;28;20212;-80
2022/05/27 08:40:17;;;;;;;3.10;2.43;;;;;;;22.12;45.97;99337.41;6947245;28;20223;-80
2022/05/27 08:43:47;;;;;;;2.70;2.37;;;;;;;22.11;46.29;99333.00;6949534;28;20273;-80
2022/05/27 08:47:15;;;;;;;3.37;2.90;;;;;;;21.89;45.65;99313.09;6953682;28;20265;-80
2022/05/27 08:50:39;;;;;;;2.40;2.20;;;;;;;21.85;45.61;99322.16;6955290;28;20233;-80
2022/05/27 08:54:04;;;;;;;4.17;2.50;;;;;;;21.65;46.56;99330.22;6955698;28;20258;-80
2022/05/27 09:01:04;;;;;;;5.07;2.90;;;;;;;21.39;47.36;99345.66;6955385;28;20235;-79
2022/05/27 09:04:29;;;;;;;5.83;3.00;;;;;;;21.45;48.20;99350.09;6956669;28;20207;-80
2022/05/27 09:07:55;;;;;;;4.20;2.60;;;;;;;21.89;47.67;99354.28;6959212;28;20210;-79
2022/05/27 09:11:35;;;;;;;5.87;2.90;;;;;;;21.80;47.30;99342.16;6956648;28;20258;-81
2022/05/27 09:15:00;;;;;;;5.07;2.53;;;;;;;22.17;46.33;99347.59;6966701;28;20221;-79
2022/05/27 09:18:27;;;;;;;6.67;2.73;;;;;;;22.07;47.06;99342.88;6945303;28;20314;-80
2022/05/27 09:21:56;;;;;;;4.30;2.50;;;;;;;22.53;45.62;99343.97;6951553;28;20258;-80
2022/05/27 09:25:22;;;;;;;4.40;2.70;;;;;;;22.14;45.62;99326.16;6943348;28;20216;-80
2022/05/27 09:28:54;;;;;;;3.63;2.60;;;;;;;22.10;45.60;99325.88;6969820;28;20261;-80
2022/05/27 09:32:19;;;;;;;2.83;2.40;;;;;;;22.64;44.36;99327.22;6961025;28;20313;-80
2022/05/27 09:35:44;;;;;;;3.60;2.40;;;;;;;23.07;43.66;99326.78;6924734;28;20224;-80
2022/05/27 09:39:10;;;;;;;3.30;2.70;;;;;;;23.23;42.64;99325.72;6935061;28;20258;-80
2022/05/27 09:42:36;;;;;;;2.90;1.97;;;;;;;23.70;41.95;99331.78;6935707;28;20209;-80
2022/05/27 09:46:01;;;;;;;4.87;2.13;;;;;;;23.81;40.92;99316.91;6952943;28;20198;-80
2022/05/27 09:49:23;;;;;;;6.20;2.60;;;;;;;23.99;41.55;99318.25;6950920;28;20715;-79
2022/05/27 09:52:45;;;;;;;3.50;2.40;;;;;;;23.46;41.36;99318.84;6959322;28;20203;-80
2022/05/27 09:56:09;;;;;;;2.37;2.10;;;;;;;22.43;42.68;99317.25;6944999;28;20231;-79
2022/05/27 09:59:38;;;;;;;5.77;2.30;;;;;;;22.79;42.70;99312.72;6951140;28;20223;-79
2022/05/27 10:03:20;;;;;;;2.97;2.17;;;;;;;23.31;41.35;99302.34;6973175;28;20303;-80
2022/05/27 10:06:42;;;;;;;2.43;1.97;;;;;;;23.48;39.78;99300.16;6953899;28;20186;-80
2022/05/27 10:10:26;;;;;;;4.73;2.30;;;;;;;23.37;39.56;99309.50;6970514;28;20229;-79
2022/05/27 10:13:49;;;;;;;3.50;1.93;;;;;;;23.47;39.74;99288.31;6950882;28;20237;-79
2022/05/27 10:17:13;;;;;;;3.87;1.93;;;;;;;23.56;39.46;99289.41;6953613;28;20573;-80
2022/05/27 10:20:36;;;;;;;2.67;1.80;;;;;;;23.70;40.38;99286.88;6953560;28;20221;-77
2022/05/27 10:24:14;;;;;;;2.10;1.87;;;;;;;24.91;37.58;99271.56;6953102;28;20676;-79
2022/05/27 10:27:38;;;;;;;2.90;2.30;;;;;;;24.50;38.01;99268.19;6947500;28;20211;-78
2022/05/27 10:31:02;;;;;;;5.43;2.50;;;;;;;24.71;36.99;99275.25;6953427;28;20236;-79
2022/05/27 10:34:39;;;;;;;1.70;1.60;;;;;;;24.16;37.11;99275.50;6962281;28;20293;-80
2022/05/27 10:38:11;;;;;;;3.87;1.60;;;;;;;24.84;36.52;99260.03;6958048;28;20207;-80
2022/05/27 10:41:45;;;;;;;2.17;1.97;;;;;;;25.83;35.06;99250.03;6948119;28;20572;-79
2022/05/27 10:45:16;;;;;;;2.20;2.00;;;;;;;25.99;34.05;99239.66;6952107;28;20232;-78
2022/05/27 10:49:02;;;;;;;3.63;1.60;;;;;;;25.98;33.90;99244.38;6941127;28;20226;-77
2022/05/27 10:52:43;;;;;;;2.13;2.00;;;;;;;25.73;33.40;99217.00;6951272;28;20213;-79
2022/05/27 10:56:17;;;;;;;2.00;1.80;;;;;;;25.90;33.91;99253.31;6974710;28;20271;-79
2022/05/27 11:03:39;;;;;;;3.30;2.13;;;;;;;26.15;34.21;99244.75;6904186;28;20208;-77
2022/05/27 11:07:09;;;;;;;5.07;3.83;;;;;;;25.25;34.97;99226.31;6928062;28;20210;-81
2022/05/27 11:10:39;;;;;;;17.10;11.93;;;;;;;25.27;35.17;99232.41;6956681;28;20589;-81
2022/05/27 11:18:00;;;;;;;3.93;3.53;;;;;;;25.61;35.39;99230.38;6929852;28;20207;-81
2022/05/27 11:21:34;;;;;;;2.60;2.17;;;;;;;25.51;34.53;99222.22;6953266;28;20269;-81
2022/05/27 11:25:21;;;;;;;2.90;2.53;;;;;;;25.41;33.81;99232.53;6953598;28;20208;-81
2022/05/27 11:29:00;;;;;;;3.30;1.80;;;;;;;24.98;34.73;99225.16;6925139;28;20234;-80
2022/05/27 11:32:40;;;;;;;4.23;1.83;;;;;;;24.87;35.05;99220.81;6952594;28;20295;-80
2022/05/27 11:36:13;;;;;;;3.67;1.77;;;;;;;25.07;34.92;99228.94;6961729;28;20230;-80
2022/05/27 11:39:55;;;;;;;3.10;1.50;;;;;;;24.54;35.33;99222.38;6959333;28;20236;-79
2022/05/27 11:43:31;;;;;;;4.67;2.10;;;;;;;24.69;36.39;99216.81;6953804;28;20209;-80
2022/05/27 11:47:14;;;;;;;1.90;1.80;;;;;;;25.20;35.45;99214.47;6968686;28;20646;-78
2022/05/27 11:51:07;;;;;;;1.93;1.60;;;;;;;25.48;34.44;99208.19;6927120;28;20233;-79
2022/05/27 11:55:04;;;;;;;1.90;1.80;;;;;;;25.98;34.27;99208.47;6927239;28;20234;-78
2022/05/27 11:58:30;;;;;;;3.83;1.93;;;;;;;26.06;34.48;99202.28;6872858;28;20742;-79
2022/05/27 12:01:56;;;;;;;3.90;1.90;;;;;;;24.96;35.40;99192.31;6947936;28;20263;-78
2022/05/27 12:05:22;;;;;;;2.43;1.60;;;;;;;25.28;34.38;99161.44;6980061;28;20200;-79
2022/05/27 12:08:51;;;;;;;1.70;1.60;;;;;;;25.51;34.75;99197.38;6966051;28;20226;-79
2022/05/27 12:12:17;;;;;;;3.37;1.90;;;;;;;25.88;34.06;99191.13;6956850;28;20199;-79
2022/05/27 12:15:43;;;;;;;3.83;1.77;;;;;;;26.09;34.80;99187.88;6951914;28;20211;-79
2022/05/27 12:19:07;;;;;;;2.67;1.80;;;;;;;26.04;34.18;99160.28;6949668;28;20227;-78
2022/05/27 12:22:33;;;;;;;2.67;1.80;;;;;;;25.73;34.08;99175.56;6944522;28;20203;-80
2022/05/27 12:25:59;;;;;;;4.47;1.70;;;;;;;25.93;34.09;99180.06;6949825;28;20619;-79
2022/05/27 12:29:22;;;;;;;2.20;2.00;;;;;;;25.97;33.94;99173.66;6943021;28;20222;-80
2022/05/27 12:32:46;;;;;;;2.87;2.07;;;;;;;25.61;34.76;99177.09;6951037;28;20204;-78
2022/05/27 12:36:13;;;;;;;4.97;1.70;;;;;;;24.87;35.52;99141.66;6942261;28;20239;-80
2022/05/27 12:39:35;;;;;;;1.83;1.60;;;;;;;24.62;36.01;99174.13;6950815;28;20229;-79
2022/05/27 12:43:01;;;;;;;2.00;1.80;;;;;;;25.09;35.15;99144.75;6947705;28;20541;-79
2022/05/27 12:46:29;;;;;;;3.33;1.70;;;;;;;24.93;35.54;99176.34;6947518;28;20200;-79
2022/05/27 12:50:00;;;;;;;3.00;2.07;;;;;;;24.64;35.86;99169.13;6938599;28;20591;-80
2022/05/27 12:53:36;;;;;;;2.13;1.90;;;;;;;24.88;35.38;99170.88;6953643;28;20217;-79
2022/05/27 13:01:00;;;;;;;2.70;1.80;;;;;;;24.97;36.43;99149.84;6874435;28;20226;-80
2022/05/27 13:04:46;;;;;;;1.93;1.80;;;;;;;25.08;36.19;99154.13;6978567;28;20191;-80
2022/05/27 13:08:19;;;;;;;1.70;1.60;;;;;;;24.83;35.96;99140.56;6974267;28;20202;-79
2022/05/27 13:11:46;;;;;;;1.50;1.40;;;;;;;25.33;36.32;99142.06;6945184;28;20241;-79
2022/05/27 13:15:12;;;;;;;2.77;1.83;;;;;;;25.51;35.24;99146.81;6949411;28;20245;-79
2022/05/27 13:18:39;;;;;;;1.70;1.50;;;;;;;25.24;36.03;99146.59;6948984;28;20240;-80
2022/05/27 13:22:03;;;;;;;1.57;1.47;;;;;;;25.46;36.02;99135.84;6955452;28;20202;-79
2022/05/27 13:25:29;;;;;;;2.00;1.90;;;;;;;24.87;37.52;99147.16;6950941;28;20210;-79
2022/05/27 13:28:53;;;;;;;3.57;1.70;;;;;;;25.38;36.65;99106.94;6950536;28;20252;-79
2022/05/27 13:32:17;;;;;;;3.97;1.60;;;;;;;25.21;37.50;99136.06;6951302;28;20237;-79
2022/05/27 13:35:43;;;;;;;2.67;1.80;;;;;;;24.66;37.68;99140.16;6956026;28;20229;-79
2022/05/27 13:39:10;;;;;;;2.30;2.00;;;;;;;24.88;37.45;99139.69;6956184;28;20745;-78
2022/05/27 13:42:34;;;;;;;2.17;1.97;;;;;;;24.67;38.54;99139.03;6956425;28;20201;-79
2022/05/27 13:46:00;;;;;;;1.87;1.70;;;;;;;24.65;38.14;99127.50;6950667;28;20288;-83
2022/05/27 13:49:28;;;;;;;1.97;1.53;;;;;;;24.46;37.93;99123.75;6953819;28;20226;-79
2022/05/27 13:52:51;;;;;;;3.83;2.20;;;;;;;24.81;38.20;99122.66;6964066;28;20193;-78
2022/05/27 13:56:15;;;;;;;1.90;1.70;;;;;;;24.24;38.61;99145.38;6933237;28;20232;-79
2022/05/27 13:59:41;;;;;;;3.67;1.70;;;;;;;23.46;39.74;99143.53;6924103;28;20230;-79
2022/05/27 14:03:04;;;;;;;2.00;1.60;;;;;;;24.02;38.66;99146.91;6938157;28;20211;-79
2022/05/27 14:06:29;;;;;;;1.67;1.50;;;;;;;24.60;37.79;99127.53;6956656;28;20199;-78
2022/05/27 14:09:57;;;;;;;3.07;1.60;;;;;;;23.99;38.95;99156.56;6968913;28;20225;-79
2022/05/27 14:13:23;;;;;;;1.47;1.30;;;;;;;24.10;39.08;99155.41;6927666;28;20216;-79
2022/05/27 14:16:44;;;;;;;2.97;1.63;;;;;;;24.22;38.91;99114.56;6946671;28;20621;-78
2022/05/27 14:20:08;;;;;;;2.63;1.80;;;;;;;24.47;38.84;99147.44;6963014;28;20233;-79
2022/05/27 14:23:29;;;;;;;1.93;1.60;;;;;;;24.60;38.39;99159.81;6955168;28;20197;-81
2022/05/27 14:26:52;;;;;;;1.50;1.40;;;;;;;24.74;38.21;99128.53;6963494;28;20216;-79
2022/05/27 14:30:18;;;;;;;1.50;1.40;;;;;;;24.50;38.32;99137.78;6952415;28;20225;-78
2022/05/27 14:33:43;;;;;;;1.77;1.30;;;;;;;24.11;38.97;99150.69;6947162;28;20678;-79
2022/05/27 14:37:14;;;;;;;3.07;1.50;;;;;;;23.88;38.94;99160.47;6939697;28;20604;-78
2022/05/27 14:40:40;;;;;;;1.50;1.40;;;;;;;23.89;39.24;99159.34;6951142;28;20237;-79
2022/05/27 14:44:03;;;;;;;1.70;1.60;;;;;;;24.00;39.16;99169.22;6953748;28;20284;-78
2022/05/27 14:47:27;;;;;;;1.73;1.40;;;;;;;23.75;39.34;99158.28;6966702;28;20212;-77
2022/05/27 14:50:49;;;;;;;1.50;1.40;;;;;;;24.46;38.79;99158.75;6966218;28;20233;-79
2022/05/27 14:54:28;;;;;;;3.87;1.50;;;;;;;24.07;39.23;99180.75;6951986;28;20239;-79
2022/05/27 14:57:52;;;;;;;3.30;1.70;;;;;;;23.34;41.29;99175.19;6938236;28;20211;-77
2022/05/27 15:01:28;;;;;;;2.30;1.40;;;;;;;23.37;40.78;99167.22;6928158;28;20239;-78
2022/05/27 15:04:58;;;;;;;1.47;1.37;;;;;;;23.87;40.37;99178.09;6926326;28;20217;-78
2022/05/27 15:08:31;;;;;;;2.37;1.60;;;;;;;24.46;39.05;99165.09;6961750;28;20212;-79
2022/05/27 15:11:53;;;;;;;1.40;1.30;;;;;;;24.02;39.63;99177.22;6970516;28;20211;-77
2022/05/27 15:15:28;;;;;;;1.57;1.47;;;;;;;24.08;39.93;99171.38;6966081;28;20232;-79
2022/05/27 15:18:55;;;;;;;1.60;1.50;;;;;;;24.18;39.70;99162.25;6954673;28;20710;-79
2022/05/27 15:22:18;;;;;;;1.43;1.30;;;;;;;24.08;39.63;99184.34;6951350;28;20202;-78
2022/05/27 15:25:43;;;;;;;2.90;1.70;;;;;;;23.67;40.46;99164.34;6954497;28;20260;-78
2022/05/27 15:33:09;;;;;;;1.70;1.60;;;;;;;23.83;41.08;99165.97;6943291;28;20213;-79
2022/05/27 15:36:32;;;;;;;2.97;1.70;;;;;;;23.92;40.56;99163.47;6965046;28;20305;-77
2022/05/27 15:39:56;;;;;;;1.27;1.23;;;;;;;24.01;40.67;99137.00;6957473;28;20333;-78
2022/05/27 15:43:20;;;;;;;2.63;1.80;;;;;;;23.59;41.60;99142.91;6950219;28;20560;-78
2022/05/27 15:46:41;;;;;;;4.60;1.90;;;;;;;24.01;40.52;99151.56;6953581;28;20201;-78
2022/05/27 15:50:04;;;;;;;1.80;1.70;;;;;;;24.16;40.02;99156.19;6949977;28;20225;-78
2022/05/27 15:53:27;;;;;;;1.70;1.60;;;;;;;23.96;40.41;99148.84;6944363;28;20201;-78
2022/05/27 15:56:49;;;;;;;1.73;1.63;;;;;;;24.22;40.32;99142.09;6958424;28;20301;-79
2022/05/27 16:00:11;;;;;;;1.80;1.70;;;;;;;23.75;40.31;99119.75;6925025;28;20223;-80
2022/05/27 16:03:33;;;;;;;1.93;1.57;;;;;;;23.76;41.23;99154.44;6942390;28;20210;-79
2022/05/27 16:06:55;;;;;;;1.37;1.27;;;;;;;24.13;39.82;99137.47;6970618;28;20210;-78
2022/05/27 16:10:18;;;;;;;1.63;1.53;;;;;;;24.16;39.56;99129.47;6970099;28;20221;-78
2022/05/27 16:13:40;;;;;;;1.43;1.33;;;;;;;24.32;38.62;99114.50;6960343;28;20205;-78
2022/05/27 16:20:43;;;;;;;1.97;1.50;;;;;;;24.79;38.05;99141.44;6960257;28;20320;-78
2022/05/27 16:24:05;;;;;;;1.10;1.10;;;;;;;24.66;37.87;99136.59;6954823;28;20201;-78
2022/05/27 16:27:28;;;;;;;4.37;1.53;;;;;;;23.71;39.78;99137.91;6964748;28;20201;-79
2022/05/27 16:30:50;;;;;;;0.97;0.97;;;;;;;24.22;37.94;99136.59;6966286;28;20709;-78
2022/05/27 16:34:12;;;;;;;1.63;1.40;;;;;;;23.84;38.18;99101.50;6963393;28;20207;-78
2022/05/27 16:37:34;;;;;;;1.93;1.17;;;;;;;23.65;39.08;99135.50;6946855;28;20239;-79
2022/05/27 16:40:55;;;;;;;1.60;0.93;;;;;;;23.91;39.01;99109.50;6946134;28;20283;-79
2022/05/27 16:44:18;;;;;;;1.80;1.30;;;;;;;24.42;37.71;99122.66;6948771;28;20690;-78
2022/05/27 16:47:40;;;;;;;1.77;1.27;;;;;;;24.02;38.47;99136.69;6957280;28;20205;-79